Wetterdaten: Woche 28.12.09 - 03.01.10 (KW53)
Datum Zeit Temp. A. Feuchte A. Luftdruck Regen Wind Richtung Taupunkt Windchill Windben
28.12.2009 00:00 3,5 C 57 % 1006,4 hPa 0,0 l/m 8,2 km/h NW -4,3 C 2,0 C 22,1 km/h
28.12.2009 01:00 4,1 C 68 % 1005,7 hPa 0,0 l/m 11,4 km/h W-NW -1,3 C 0,2 C 28,6 km/h
28.12.2009 02:00 4,0 C 70 % 1005,6 hPa 0,0 l/m 8,9 km/h W-NW -0,9 C 1,9 C 23,3 km/h
28.12.2009 03:00 4,3 C 67 % 1005,5 hPa 0,0 l/m 8,9 km/h NW -1,3 C 2,2 C 23,3 km/h
28.12.2009 04:00 4,6 C 65 % 1005,6 hPa 0,0 l/m 9,0 km/h NW -1,4 C 2,4 C 27,3 km/h
28.12.2009 05:00 4,6 C 68 % 1006,0 hPa 0,0 l/m 9,5 km/h W-NW -0,9 C 2,1 C 26,1 km/h
28.12.2009 06:00 4,2 C 70 % 1005,9 hPa 0,0 l/m 7,6 km/h NW -0,7 C 3,0 C 25,0 km/h
28.12.2009 07:00 4,4 C 72 % 1005,8 hPa 0,0 l/m 10,0 km/h NW -0,2 C 1,6 C 28,1 km/h
28.12.2009 08:00 4,3 C 73 % 1006,2 hPa 0,0 l/m 14,8 km/h W -0,2 C -1,7 C 32,2 km/h
28.12.2009 09:00 5,1 C 67 % 1006,6 hPa 0,0 l/m 14,3 km/h W-SW -0,5 C -0,3 C 36,2 km/h
28.12.2009 10:00 5,9 C 64 % 1006,6 hPa 0,0 l/m 14,4 km/h W -0,3 C 0,5 C 33,0 km/h
28.12.2009 11:00 6,7 C 61 % 1006,7 hPa 0,0 l/m 12,4 km/h S-SO -0,2 C 2,6 C 30,2 km/h
28.12.2009 12:00 6,8 C 58 % 1006,5 hPa 0,0 l/m 12,3 km/h W-NW -0,8 C 2,7 C 29,0 km/h
28.12.2009 13:00 6,4 C 57 % 1006,4 hPa 0,0 l/m 13,4 km/h W-NW -1,5 C 1,6 C 31,4 km/h
28.12.2009 14:00 6,4 C 54 % 1006,3 hPa 0,0 l/m 13,2 km/h W -2,2 C 1,7 C 29,0 km/h
28.12.2009 15:00 5,9 C 55 % 1006,6 hPa 0,0 l/m 7,2 km/h W -2,5 C 5,0 C 19,7 km/h
28.12.2009 16:00 5,2 C 58 % 1006,6 hPa 0,0 l/m 4,0 km/h W -2,5 C 5,2 C 12,1 km/h
28.12.2009 17:00 4,5 C 60 % 1006,7 hPa 0,0 l/m 3,5 km/h NW -2,5 C 4,5 C 14,1 km/h
28.12.2009 18:00 3,2 C 64 % 1007,0 hPa 0,0 l/m 1,8 km/h NW -2,9 C 3,2 C 8,5 km/h
28.12.2009 19:00 3,8 C 60 % 1007,3 hPa 0,0 l/m 1,5 km/h W-NW -3,1 C 3,8 C 6,8 km/h
28.12.2009 20:00 1,3 C 65 % 1007,9 hPa 0,0 l/m 0,1 km/h N -4,6 C 1,3 C 2,0 km/h
28.12.2009 21:00 -0,9 C 72 % 1008,4 hPa 0,0 l/m 0,1 km/h N -5,3 C -0,9 C 1,2 km/h
28.12.2009 22:00 -1,5 C 77 % 1008,6 hPa 0,0 l/m 0,2 km/h N -5,0 C -1,5 C 1,2 km/h
28.12.2009 23:00 -2,6 C 79 % 1009,0 hPa 0,0 l/m 0,1 km/h N -5,8 C -2,6 C 1,2 km/h
29.12.2009 00:00 -3,4 C 81 % 1009,0 hPa 0,0 l/m 0,0 km/h N -6,1 C -3,4 C 0,4 km/h
29.12.2009 01:00 -3,7 C 83 % 1009,4 hPa 0,0 l/m 0,0 km/h N -6,2 C -3,7 C 1,6 km/h
29.12.2009 02:00 -3,9 C 85 % 1009,8 hPa 0,0 l/m 0,0 km/h N -6,2 C -3,9 C 1,2 km/h
29.12.2009 03:00 -4,2 C 85 % 1010,2 hPa 0,0 l/m 0,0 km/h N -6,3 C -4,2 C 0,8 km/h
29.12.2009 04:00 -4,6 C 86 % 1010,3 hPa 0,0 l/m 0,0 km/h N -6,6 C -4,6 C 1,2 km/h
29.12.2009 05:00 -4,8 C 86 % 1010,4 hPa 0,0 l/m 0,0 km/h N -6,7 C -4,8 C 1,6 km/h
29.12.2009 06:00 -4,9 C 87 % 1010,8 hPa 0,0 l/m 0,0 km/h N -6,8 C -4,9 C 1,6 km/h
29.12.2009 07:00 -4,5 C 88 % 1011,3 hPa 0,0 l/m 0,0 km/h N -6,3 C -4,5 C 1,6 km/h
29.12.2009 08:00 -4,5 C 87 % 1011,9 hPa 0,0 l/m 0,0 km/h N -6,3 C -4,5 C 0,0 km/h
29.12.2009 09:00 -4,1 C 89 % 1012,5 hPa 0,0 l/m 0,0 km/h N -5,7 C -4,1 C 0,0 km/h
29.12.2009 10:00 -1,0 C 89 % 1012,4 hPa 0,0 l/m 0,0 km/h SO -2,6 C -1,0 C 2,4 km/h
29.12.2009 11:00 1,2 C 81 % 1011,5 hPa 0,0 l/m 1,6 km/h O-SO -1,8 C 1,2 C 5,6 km/h
29.12.2009 12:00 2,4 C 72 % 1010,8 hPa 0,0 l/m 3,2 km/h O-SO -2,1 C 2,4 C 8,9 km/h
29.12.2009 13:00 2,6 C 72 % 1010,1 hPa 0,0 l/m 4,0 km/h O-SO -2,1 C 2,6 C 10,5 km/h
29.12.2009 14:00 2,9 C 72 % 1009,3 hPa 0,0 l/m 3,2 km/h O-SO -1,6 C 2,9 C 12,1 km/h
29.12.2009 15:00 2,9 C 73 % 1008,7 hPa 0,0 l/m 1,6 km/h O -1,5 C 2,9 C 11,3 km/h
29.12.2009 16:00 2,3 C 76 % 1008,2 hPa 0,0 l/m 1,6 km/h SO -1,5 C 2,3 C 9,7 km/h
29.12.2009 17:00 2,0 C 77 % 1007,6 hPa 0,0 l/m 0,8 km/h O-SO -1,6 C 2,0 C 7,3 km/h
29.12.2009 18:00 1,7 C 78 % 1006,6 hPa 0,0 l/m 1,6 km/h O-SO -1,7 C 1,7 C 12,9 km/h
29.12.2009 19:00 1,7 C 79 % 1006,2 hPa 0,0 l/m 0,8 km/h N -1,7 C 1,7 C 8,1 km/h
29.12.2009 20:00 1,5 C 80 % 1005,6 hPa 0,3 l/m 0,0 km/h N -1,6 C 1,5 C 4,8 km/h
29.12.2009 21:00 1,3 C 83 % 1005,0 hPa 0,0 l/m 0,0 km/h N -1,3 C 1,3 C 5,6 km/h
29.12.2009 22:00 1,2 C 86 % 1004,3 hPa 0,0 l/m 0,0 km/h N -1,0 C 1,2 C 4,8 km/h
29.12.2009 23:00 1,3 C 87 % 1003,9 hPa 0,0 l/m 0,8 km/h O-SO -0,6 C 1,3 C 5,6 km/h
30.12.2009 00:00 1,3 C 87 % 1003,3 hPa 0,0 l/m 0,8 km/h O-SO -0,6 C 1,3 C 4,0 km/h
30.12.2009 01:00 0,7 C 87 % 1002,7 hPa 0,0 l/m 0,0 km/h N -1,2 C 0,7 C 1,1 km/h
30.12.2009 02:00 0,0 C 87 % 1002,4 hPa 0,0 l/m 0,0 km/h N -1,8 C 0,0 C 0,8 km/h
30.12.2009 03:00 -0,7 C 88 % 1002,1 hPa 0,0 l/m 0,1 km/h N -2,5 C -0,7 C 1,6 km/h
30.12.2009 04:00 -0,8 C 89 % 1001,8 hPa 0,0 l/m 0,1 km/h N -2,4 C -0,8 C 1,6 km/h
30.12.2009 05:00 -1,1 C 89 % 1001,6 hPa 0,0 l/m 0,2 km/h N -2,6 C -1,1 C 2,0 km/h
30.12.2009 06:00 -0,4 C 90 % 1001,4 hPa 0,0 l/m 0,0 km/h N -1,9 C -0,4 C 0,4 km/h
30.12.2009 07:00 0,1 C 90 % 1001,4 hPa 0,0 l/m 0,1 km/h N -1,3 C 0,1 C 1,6 km/h
30.12.2009 08:00 0,5 C 91 % 1001,7 hPa 0,0 l/m 0,1 km/h N -0,8 C 0,5 C 1,6 km/h
30.12.2009 09:00 1,0 C 91 % 1001,9 hPa 0,0 l/m 0,1 km/h N -0,3 C 1,0 C 1,2 km/h
30.12.2009 10:00 1,7 C 91 % 1001,7 hPa 0,0 l/m 0,6 km/h N 0,4 C 1,7 C 2,8 km/h
30.12.2009 11:00 3,0 C 86 % 1001,2 hPa 0,0 l/m 1,0 km/h S-SO 0,9 C 3,0 C 6,4 km/h
30.12.2009 12:00 4,0 C 81 % 1000,6 hPa 0,0 l/m 2,1 km/h O-SO 1,1 C 4,0 C 8,4 km/h
30.12.2009 13:00 4,8 C 79 % 999,5 hPa 0,0 l/m 1,8 km/h O-SO 1,4 C 4,8 C 7,6 km/h
30.12.2009 14:00 4,8 C 80 % 999,3 hPa 0,0 l/m 1,5 km/h O-SO 1,6 C 4,8 C 5,2 km/h
30.12.2009 15:00 4,3 C 83 % 998,9 hPa 0,0 l/m 2,0 km/h O 1,7 C 4,3 C 6,0 km/h
30.12.2009 16:00 3,4 C 87 % 998,5 hPa 0,0 l/m 1,8 km/h O-SO 1,4 C 3,4 C 6,0 km/h
30.12.2009 17:00 2,4 C 89 % 998,0 hPa 0,0 l/m 2,4 km/h O-SO 0,8 C 2,4 C 6,8 km/h
30.12.2009 18:00 2,2 C 91 % 997,5 hPa 0,0 l/m 0,8 km/h N 0,8 C 2,2 C 4,0 km/h
30.12.2009 19:00 2,4 C 91 % 997,3 hPa 0,0 l/m 0,2 km/h N 1,1 C 2,4 C 3,2 km/h
30.12.2009 20:00 2,3 C 91 % 997,1 hPa 0,0 l/m 0,2 km/h N 1,0 C 2,3 C 2,8 km/h
30.12.2009 21:00 2,2 C 92 % 997,3 hPa 0,0 l/m 0,2 km/h N 1,0 C 2,2 C 2,0 km/h
30.12.2009 22:00 2,2 C 92 % 997,4 hPa 0,0 l/m 0,0 km/h N 1,0 C 2,2 C 0,4 km/h
30.12.2009 23:00 2,2 C 92 % 997,6 hPa 0,0 l/m 0,1 km/h N 1,1 C 2,2 C 1,2 km/h
31.12.2009 00:00 1,6 C 92 % 997,3 hPa 0,0 l/m 0,1 km/h N 0,5 C 1,6 C 2,4 km/h
31.12.2009 01:00 1,7 C 92 % 997,1 hPa 0,0 l/m 0,6 km/h N 0,5 C 1,7 C 6,0 km/h
31.12.2009 02:00 1,2 C 92 % 997,4 hPa 0,0 l/m 0,3 km/h N 0,0 C 1,2 C 4,0 km/h
31.12.2009 03:00 0,8 C 92 % 997,4 hPa 0,0 l/m 0,2 km/h N -0,3 C 0,8 C 2,8 km/h
31.12.2009 04:00 0,3 C 92 % 997,5 hPa 0,0 l/m 0,8 km/h O-SO -0,8 C 0,3 C 4,4 km/h
31.12.2009 05:00 0,4 C 92 % 997,7 hPa 0,0 l/m 0,1 km/h S-SO -0,7 C 0,4 C 2,0 km/h
31.12.2009 06:00 0,1 C 92 % 998,1 hPa 0,0 l/m 0,8 km/h O -1,0 C 0,1 C 4,4 km/h
31.12.2009 07:00 -0,2 C 92 % 998,0 hPa 0,0 l/m 0,1 km/h N -1,4 C -0,2 C 2,0 km/h
31.12.2009 08:00 -0,5 C 92 % 998,2 hPa 0,0 l/m 0,0 km/h N -1,6 C -0,5 C 0,0 km/h
31.12.2009 09:00 0,5 C 93 % 998,2 hPa 0,0 l/m 0,0 km/h N -0,5 C 0,5 C 0,4 km/h
31.12.2009 10:00 2,7 C 94 % 997,9 hPa 0,0 l/m 0,3 km/h N 1,7 C 2,7 C 2,0 km/h
31.12.2009 11:00 4,7 C 93 % 997,2 hPa 0,0 l/m 0,2 km/h N 3,6 C 4,7 C 2,0 km/h
31.12.2009 12:00 6,1 C 88 % 996,7 hPa 0,0 l/m 0,0 km/h N 4,3 C 6,1 C 0,8 km/h
31.12.2009 13:00 6,6 C 88 % 996,4 hPa 0,0 l/m 0,0 km/h N 4,7 C 6,6 C 0,4 km/h
31.12.2009 14:00 7,3 C 88 % 996,1 hPa 0,0 l/m 0,4 km/h O-SO 5,5 C 7,3 C 2,4 km/h
31.12.2009 15:00 8,0 C 84 % 995,7 hPa 0,0 l/m 0,6 km/h N 5,5 C 8,0 C 2,8 km/h
31.12.2009 16:00 7,0 C 80 % 995,6 hPa 0,0 l/m 0,0 km/h N 3,7 C 7,0 C 0,0 km/h
31.12.2009 17:00 4,2 C 81 % 995,6 hPa 0,0 l/m 0,0 km/h N 1,2 C 4,2 C 1,2 km/h
31.12.2009 18:00 2,8 C 86 % 995,5 hPa 0,0 l/m 0,0 km/h N 0,6 C 2,8 C 0,4 km/h
31.12.2009 19:00 2,2 C 88 % 995,6 hPa 0,0 l/m 0,0 km/h N 0,4 C 2,2 C 0,4 km/h
31.12.2009 20:00 2,7 C 90 % 995,5 hPa 0,0 l/m 0,1 km/h N 1,2 C 2,7 C 2,0 km/h
31.12.2009 21:00 2,9 C 90 % 995,2 hPa 0,0 l/m 0,0 km/h N 1,4 C 2,9 C 1,2 km/h
31.12.2009 22:00 2,9 C 91 % 994,8 hPa 0,0 l/m 0,1 km/h N 1,6 C 2,9 C 1,6 km/h
31.12.2009 23:00 2,7 C 91 % 994,3 hPa 0,0 l/m 0,4 km/h SO 1,4 C 2,7 C 2,0 km/h
01.01.2010 00:00 2,4 C 91 % 994,1 hPa 0,0 l/m 0,2 km/h N 1,1 C 2,4 C 2,4 km/h
01.01.2010 01:00 2,5 C 92 % 993,3 hPa 0,0 l/m 1,0 km/h N-NW 1,4 C 2,5 C 3,2 km/h
01.01.2010 02:00 2,4 C 92 % 992,8 hPa 0,0 l/m 0,1 km/h N 1,3 C 2,4 C 1,2 km/h
01.01.2010 03:00 2,4 C 92 % 992,3 hPa 0,0 l/m 0,0 km/h N 1,2 C 2,4 C 0,8 km/h
01.01.2010 04:00 2,5 C 92 % 992,1 hPa 0,0 l/m 0,0 km/h N 1,3 C 2,5 C 0,0 km/h
01.01.2010 05:00 2,6 C 93 % 991,7 hPa 0,0 l/m 0,0 km/h N 1,6 C 2,6 C 0,0 km/h
01.01.2010 06:00 2,8 C 93 % 991,6 hPa 0,0 l/m 0,0 km/h N 1,8 C 2,8 C 0,0 km/h
01.01.2010 07:00 3,2 C 93 % 991,5 hPa 0,0 l/m 0,0 km/h N 2,2 C 3,2 C 0,0 km/h
01.01.2010 08:00 3,3 C 93 % 991,6 hPa 0,0 l/m 0,1 km/h N 2,3 C 3,3 C 0,8 km/h
01.01.2010 09:00 3,7 C 93 % 991,8 hPa 0,0 l/m 0,0 km/h N 2,7 C 3,7 C 0,8 km/h
01.01.2010 10:00 4,6 C 93 % 991,9 hPa 0,0 l/m 0,1 km/h N 3,5 C 4,6 C 1,2 km/h
01.01.2010 11:00 5,8 C 92 % 991,7 hPa 0,0 l/m 0,2 km/h N 4,6 C 5,8 C 2,4 km/h
01.01.2010 12:00 7,1 C 87 % 991,3 hPa 0,0 l/m 0,9 km/h O-SO 5,2 C 7,1 C 4,4 km/h
01.01.2010 13:00 7,5 C 86 % 991,2 hPa 0,0 l/m 2,8 km/h O 5,3 C 7,5 C 5,6 km/h
01.01.2010 14:00 6,2 C 89 % 991,9 hPa 0,0 l/m 2,9 km/h O 4,5 C 6,2 C 7,6 km/h
01.01.2010 15:00 5,7 C 90 % 992,4 hPa 0,0 l/m 1,6 km/h NO 4,2 C 5,7 C 5,2 km/h
01.01.2010 16:00 4,7 C 90 % 993,0 hPa 0,0 l/m 2,6 km/h NO 3,2 C 4,7 C 7,6 km/h
01.01.2010 17:00 4,3 C 91 % 993,4 hPa 0,0 l/m 0,7 km/h NO 2,9 C 4,3 C 4,4 km/h
01.01.2010 18:00 4,0 C 91 % 993,9 hPa 0,0 l/m 0,6 km/h N 2,7 C 4,0 C 3,2 km/h
01.01.2010 19:00 4,0 C 92 % 994,4 hPa 0,0 l/m 0,4 km/h N 2,7 C 4,0 C 2,8 km/h
01.01.2010 20:00 3,8 C 92 % 995,0 hPa 0,0 l/m 1,7 km/h N-NW 2,6 C 3,8 C 5,2 km/h
01.01.2010 21:00 3,3 C 92 % 995,9 hPa 0,0 l/m 2,7 km/h N-NW 2,1 C 3,3 C 7,2 km/h
01.01.2010 22:00 3,3 C 92 % 996,3 hPa 0,0 l/m 0,8 km/h N 2,1 C 3,3 C 4,4 km/h
01.01.2010 23:00 3,4 C 92 % 996,5 hPa 0,0 l/m 1,2 km/h N-NW 2,2 C 3,4 C 5,2 km/h
02.01.2010 00:00 3,6 C 92 % 996,8 hPa 0,0 l/m 0,9 km/h N-NO 2,4 C 3,6 C 4,0 km/h
02.01.2010 01:00 3,6 C 92 % 997,4 hPa 0,0 l/m 0,1 km/h N 2,3 C 3,6 C 1,6 km/h
02.01.2010 02:00 4,4 C 92 % 998,1 hPa 0,0 l/m 1,1 km/h N-NO 3,1 C 4,4 C 6,8 km/h
02.01.2010 03:00 4,7 C 90 % 998,8 hPa 0,0 l/m 4,3 km/h NW 3,3 C 4,7 C 10,1 km/h
02.01.2010 04:00 4,8 C 89 % 999,5 hPa 0,0 l/m 4,8 km/h N-NW 3,1 C 4,8 C 10,9 km/h
02.01.2010 05:00 4,4 C 89 % 1000,4 hPa 0,3 l/m 5,6 km/h W 2,7 C 3,7 C 16,1 km/h
02.01.2010 06:00 3,1 C 86 % 1001,7 hPa 0,0 l/m 13,8 km/h W-NW 1,0 C -2,4 C 33,4 km/h
02.01.2010 07:00 2,3 C 86 % 1003,2 hPa 0,0 l/m 12,5 km/h NW 0,1 C -2,7 C 29,4 km/h
02.01.2010 08:00 1,5 C 87 % 1004,7 hPa 0,0 l/m 10,6 km/h NW -0,4 C -2,2 C 23,8 km/h
02.01.2010 09:00 1,3 C 88 % 1005,8 hPa 0,0 l/m 13,1 km/h W-NW -0,5 C -4,2 C 26,5 km/h
02.01.2010 10:00 1,5 C 85 % 1006,6 hPa 0,0 l/m 14,5 km/h W -0,7 C -4,9 C 29,0 km/h
02.01.2010 11:00 2,2 C 78 % 1006,9 hPa 0,0 l/m 12,9 km/h NW -1,3 C -3,1 C 30,2 km/h
02.01.2010 12:00 2,3 C 71 % 1007,3 hPa 0,0 l/m 13,2 km/h N-NW -2,4 C -3,1 C 33,4 km/h
02.01.2010 13:00 2,2 C 69 % 1008,1 hPa 0,0 l/m 14,3 km/h NW -2,9 C -3,9 C 33,4 km/h
02.01.2010 14:00 1,8 C 70 % 1009,2 hPa 0,0 l/m 13,3 km/h NW -3,1 C -3,8 C 30,6 km/h
02.01.2010 15:00 1,5 C 71 % 1010,4 hPa 0,0 l/m 11,6 km/h NW -3,3 C -3,0 C 28,1 km/h
02.01.2010 16:00 0,8 C 68 % 1011,7 hPa 0,0 l/m 13,8 km/h W -4,4 C -5,2 C 29,4 km/h
02.01.2010 17:00 0,4 C 65 % 1012,5 hPa 0,0 l/m 12,8 km/h W-NW -5,4 C -5,1 C 27,4 km/h
02.01.2010 18:00 0,3 C 65 % 1013,3 hPa 0,0 l/m 14,1 km/h N-NW -5,7 C -6,1 C 31,0 km/h
02.01.2010 19:00 0,0 C 67 % 1014,1 hPa 0,0 l/m 14,7 km/h NW -5,4 C -6,7 C 30,6 km/h
02.01.2010 20:00 0,0 C 63 % 1014,9 hPa 0,0 l/m 16,8 km/h W-NW -6,1 C -7,9 C 32,6 km/h
02.01.2010 21:00 -0,3 C 70 % 1015,6 hPa 0,0 l/m 11,9 km/h NW -5,0 C -5,1 C 27,8 km/h
02.01.2010 22:00 -0,3 C 72 % 1016,0 hPa 0,0 l/m 14,0 km/h NW -4,8 C -6,8 C 30,6 km/h
02.01.2010 23:00 -0,7 C 74 % 1016,4 hPa 0,0 l/m 13,0 km/h W-SW -4,8 C -6,5 C 31,8 km/h
03.01.2010 00:00 -0,9 C 73 % 1016,6 hPa 0,0 l/m 14,3 km/h W-NW -5,2 C -7,6 C 33,8 km/h
03.01.2010 01:00 -0,9 C 71 % 1017,3 hPa 0,0 l/m 12,9 km/h N-NW -5,5 C -6,6 C 29,4 km/h
03.01.2010 02:00 -1,0 C 69 % 1018,1 hPa 0,0 l/m 13,6 km/h NW -5,9 C -7,3 C 30,2 km/h
03.01.2010 03:00 -1,2 C 70 % 1018,5 hPa 0,0 l/m 10,1 km/h NW -6,0 C -4,7 C 26,9 km/h
03.01.2010 04:00 -1,5 C 70 % 1018,7 hPa 0,0 l/m 13,1 km/h W-NW -6,3 C -7,5 C 28,6 km/h
03.01.2010 05:00 -2,0 C 70 % 1018,7 hPa 0,0 l/m 11,9 km/h W -6,7 C -7,2 C 29,0 km/h
03.01.2010 06:00 -2,5 C 69 % 1018,6 hPa 0,0 l/m 11,9 km/h NW -7,5 C -7,8 C 29,4 km/h
03.01.2010 07:00 -2,8 C 68 % 1018,5 hPa 0,0 l/m 10,5 km/h W-NW -7,8 C -6,9 C 29,4 km/h
03.01.2010 08:00 -2,5 C 68 % 1019,0 hPa 0,0 l/m 10,6 km/h NW -7,6 C -6,7 C 26,2 km/h
03.01.2010 09:00 -1,9 C 67 % 1019,4 hPa 0,0 l/m 10,9 km/h NW -7,3 C -6,4 C 27,0 km/h
03.01.2010 10:00 -1,0 C 66 % 1019,7 hPa 0,0 l/m 11,5 km/h NW -6,7 C -5,8 C 26,5 km/h
03.01.2010 11:00 -0,5 C 64 % 1019,4 hPa 0,0 l/m 9,9 km/h W -6,4 C -3,8 C 25,4 km/h
03.01.2010 12:00 -0,0 C 65 % 1019,3 hPa 0,0 l/m 9,7 km/h NW -5,9 C -3,2 C 26,1 km/h
03.01.2010 13:00 0,2 C 64 % 1019,2 hPa 0,0 l/m 10,3 km/h W -5,9 C -3,5 C 25,8 km/h
03.01.2010 14:00 0,1 C 62 % 1019,2 hPa 0,0 l/m 7,3 km/h NW -6,3 C -0,8 C 20,1 km/h
03.01.2010 15:00 0,1 C 62 % 1019,5 hPa 0,0 l/m 6,9 km/h W-SW -6,4 C -0,8 C 20,9 km/h
03.01.2010 16:00 -0,3 C 64 % 1019,8 hPa 0,0 l/m 4,9 km/h W -6,3 C -0,3 C 15,7 km/h
03.01.2010 17:00 -0,3 C 66 % 1020,0 hPa 0,0 l/m 4,9 km/h W-NW -5,9 C -0,3 C 18,9 km/h
03.01.2010 18:00 -0,3 C 64 % 1019,8 hPa 0,0 l/m 3,6 km/h SW -6,2 C -0,3 C 12,9 km/h
03.01.2010 19:00 -0,7 C 66 % 1019,8 hPa 0,0 l/m 2,5 km/h NW -6,3 C -0,7 C 8,9 km/h
03.01.2010 20:00 -1,6 C 67 % 1019,8 hPa 0,0 l/m 0,3 km/h N -6,9 C -1,6 C 1,6 km/h
03.01.2010 21:00 -2,7 C 70 % 1020,0 hPa 0,0 l/m 0,0 km/h N -7,5 C -2,7 C 0,0 km/h
Min-Datum _ 29.12.09 28.12.09 01.01.10 - 28.12.09 - 03.01.10 02.01.10 28.12.09
_ Min-Zeit 06:30 00:00 13:00 - 19:45 - 07:00 20:00 21:15
Minimum _ -5,0 C 54 % 991,1 hPa - 0,0 km/h - -7,9 C -9,7 C 0,0 km/h
Max-Datum _ 31.12.09 31.12.09 03.01.10 29.12.09 02.01.10 - 31.12.09 31.12.09 28.12.09
_ Max-Zeit 15:45 10:15 17:00 20:30 20:00 - 14:45 15:45 09:15
Maximum _ 8,2 C 94 % 1020,0 hPa 0,3 l/m 20,1 km/h
W-NW
- 5,7 C 8,2 C 40,2 km/h
W-SW
Durchschnitt _ 1,8 C 80 % 1004,3 hPa #0,5 l/m 4,2 km/h NW -1,3 C 0,5 C 11,4 km/h